Time;durP1;ratioP1;P1;durP2;ratioP2;P2;SDS_P1;SDS_P2;PMS_P1;PMS_P2;Temp;Humidity;BMP_temperature;BMP_pressure;BME280_temperature;BME280_humidity;BME280_pressure;Samples;Min_cycle;Max_cycle;Signal;HPM_P1;HPM_P2
2021/11/01 00:02:35;;;;;;;0.98;0.63;;;;;;;8.85;100.00;96697.72;6339681;22;20069;-48
2021/11/01 00:05:39;;;;;;;1.20;0.57;;;;;;;8.86;100.00;96699.19;6339364;22;20021;-47
2021/11/01 00:08:42;;;;;;;0.40;0.22;;;;;;;8.86;100.00;96704.75;6339406;22;20022;-47
2021/11/01 00:11:45;;;;;;;0.10;0.10;;;;;;;8.78;100.00;96699.13;6339175;22;20025;-47
2021/11/01 00:14:48;;;;;;;0.63;0.43;;;;;;;8.78;100.00;96703.94;6339208;22;20068;-47
2021/11/01 00:17:51;;;;;;;0.10;0.10;;;;;;;8.76;100.00;96701.72;6339302;22;20025;-47
2021/11/01 00:20:54;;;;;;;0.10;0.10;;;;;;;8.68;100.00;96706.44;6339434;22;20106;-47
2021/11/01 00:23:57;;;;;;;0.10;0.10;;;;;;;8.59;100.00;96697.81;6339514;22;20088;-47
2021/11/01 00:27:00;;;;;;;0.20;0.20;;;;;;;8.50;100.00;96690.72;6339560;22;20030;-47
2021/11/01 00:30:07;;;;;;;0.10;0.10;;;;;;;8.44;100.00;96698.41;6339571;22;20043;-47
2021/11/01 00:33:11;;;;;;;4.57;0.77;;;;;;;8.39;100.00;96705.56;6339837;22;20073;-47
2021/11/01 00:36:14;;;;;;;0.10;0.10;;;;;;;8.46;100.00;96693.06;6339413;22;20492;-46
2021/11/01 00:39:17;;;;;;;0.10;0.10;;;;;;;8.57;100.00;96695.59;6339354;22;20025;-47
2021/11/01 00:42:19;;;;;;;0.10;0.10;;;;;;;8.62;100.00;96697.47;6339305;22;20021;-47
2021/11/01 00:45:22;;;;;;;0.10;0.10;;;;;;;8.65;100.00;96699.19;6339710;22;20072;-47
2021/11/01 00:48:25;;;;;;;0.10;0.10;;;;;;;8.69;100.00;96696.81;6339224;22;20030;-47
2021/11/01 00:51:28;;;;;;;0.80;0.40;;;;;;;8.74;100.00;96698.72;6339169;22;20437;-47
2021/11/01 00:54:31;;;;;;;4.28;0.60;;;;;;;8.76;100.00;96698.94;6339425;22;20057;-47
2021/11/01 00:57:34;;;;;;;0.10;0.10;;;;;;;8.82;100.00;96696.78;6338895;22;20025;-47
2021/11/01 01:00:37;;;;;;;1.95;0.73;;;;;;;8.80;100.00;96688.25;6338559;22;20091;-47
2021/11/01 01:03:42;;;;;;;0.77;0.30;;;;;;;8.84;100.00;96694.19;6338806;22;20030;-47
2021/11/01 01:06:45;;;;;;;0.10;0.10;;;;;;;8.88;100.00;96697.38;6339047;22;20026;-47
2021/11/01 01:09:49;;;;;;;0.20;0.20;;;;;;;8.91;100.00;96679.66;6338951;22;20021;-47
2021/11/01 01:12:52;;;;;;;0.20;0.20;;;;;;;8.90;100.00;96678.16;6338680;22;20331;-47
2021/11/01 01:16:06;;;;;;;0.10;0.10;;;;;;;8.91;100.00;96679.66;6339011;22;20033;-47
2021/11/01 01:19:19;;;;;;;0.55;0.40;;;;;;;8.96;100.00;96691.91;6339105;22;20072;-47
2021/11/01 01:22:28;;;;;;;0.10;0.10;;;;;;;8.95;100.00;96680.06;6339170;22;20026;-47
2021/11/01 01:25:44;;;;;;;0.20;0.20;;;;;;;8.95;100.00;96684.88;6338780;22;20068;-47
2021/11/01 01:28:48;;;;;;;0.20;0.20;;;;;;;9.02;100.00;96695.28;6305447;22;20053;-46
2021/11/01 01:31:51;;;;;;;0.10;0.10;;;;;;;9.01;100.00;96693.78;6338878;22;20098;-46
2021/11/01 01:34:54;;;;;;;0.68;0.43;;;;;;;9.00;100.00;96684.75;6338595;22;20025;-47
2021/11/01 01:37:57;;;;;;;0.68;0.68;;;;;;;9.03;100.00;96686.41;6339171;22;20057;-46
2021/11/01 01:41:18;;;;;;;1.58;0.55;;;;;;;9.03;100.00;96703.06;6338610;22;20028;-46
2021/11/01 01:44:21;;;;;;;0.13;0.13;;;;;;;9.00;100.00;96698.63;6338727;22;20021;-47
2021/11/01 01:47:23;;;;;;;0.25;0.25;;;;;;;9.00;100.00;96698.63;6338651;22;20075;-47
2021/11/01 01:50:27;;;;;;;0.20;0.20;;;;;;;9.07;100.00;96708.31;6338299;22;20021;-47
2021/11/01 01:53:29;;;;;;;0.10;0.10;;;;;;;9.09;100.00;96714.06;6338412;22;20068;-47
2021/11/01 01:56:33;;;;;;;0.57;0.10;;;;;;;9.02;100.00;96717.50;6338449;22;20075;-47
2021/11/01 01:59:36;;;;;;;0.60;0.10;;;;;;;9.01;100.00;96724.31;6338053;22;20048;-48
2021/11/01 02:02:40;;;;;;;0.17;0.17;;;;;;;9.01;100.00;96725.06;6338326;22;20068;-48
2021/11/01 02:05:53;;;;;;;0.47;0.47;;;;;;;9.01;100.00;96727.09;6338198;22;20470;-48
2021/11/01 02:09:16;;;;;;;0.10;0.10;;;;;;;9.09;100.00;96739.78;6338838;22;20022;-48
2021/11/01 02:12:24;;;;;;;0.30;0.30;;;;;;;9.06;100.00;96729.75;6299491;22;20052;-48
2021/11/01 02:15:29;;;;;;;0.47;0.43;;;;;;;9.05;100.00;96739.34;6338331;22;20029;-48
2021/11/01 02:18:34;;;;;;;0.10;0.10;;;;;;;9.01;100.00;96732.66;6338511;22;20021;-48
2021/11/01 02:21:54;;;;;;;0.15;0.15;;;;;;;8.93;100.00;96732.59;6338599;22;20399;-48
2021/11/01 02:25:03;;;;;;;0.25;0.17;;;;;;;9.06;100.00;96740.84;6338850;22;20045;-49
2021/11/01 02:28:15;;;;;;;0.10;0.10;;;;;;;9.03;100.00;96739.16;6338398;22;20021;-48
2021/11/01 02:31:21;;;;;;;7.63;0.30;;;;;;;9.09;100.00;96734.22;6338597;22;20021;-48
2021/11/01 02:34:24;;;;;;;0.10;0.00;;;;;;;9.09;100.00;96739.78;6338289;22;20021;-49
2021/11/01 02:37:27;;;;;;;0.10;0.10;;;;;;;9.11;100.00;96734.44;6338521;22;20025;-49
2021/11/01 02:40:31;;;;;;;0.55;0.10;;;;;;;9.09;100.00;96739.78;6338154;22;20061;-48
2021/11/01 02:43:34;;;;;;;0.10;0.10;;;;;;;9.10;100.00;96746.81;6338443;22;20022;-49
2021/11/01 02:46:38;;;;;;;0.30;0.30;;;;;;;9.14;100.00;96738.88;6338153;22;20025;-49
2021/11/01 02:49:41;;;;;;;0.10;0.00;;;;;;;9.16;100.00;96739.09;6337919;22;20025;-49
2021/11/01 02:52:44;;;;;;;0.10;0.10;;;;;;;9.18;100.00;96735.03;6338181;22;20030;-49
2021/11/01 02:55:47;;;;;;;1.25;0.20;;;;;;;9.15;100.00;96734.84;6338490;22;20417;-49
2021/11/01 02:58:51;;;;;;;0.35;0.35;;;;;;;9.14;100.00;96746.47;6338022;22;20022;-49
2021/11/01 03:01:54;;;;;;;0.10;0.10;;;;;;;9.18;100.00;96746.16;6338418;22;20021;-49
2021/11/01 03:04:58;;;;;;;6.40;0.52;;;;;;;9.14;100.00;96752.03;6338072;22;20025;-49
2021/11/01 03:08:01;;;;;;;0.20;0.20;;;;;;;9.15;100.00;96745.94;6338266;22;20569;-48
2021/11/01 03:11:05;;;;;;;0.10;0.10;;;;;;;9.10;100.00;96752.38;6337983;22;20504;-49
2021/11/01 03:14:10;;;;;;;0.10;0.10;;;;;;;9.07;100.00;96747.88;6338533;22;20025;-49
2021/11/01 03:17:15;;;;;;;0.50;0.50;;;;;;;9.13;100.00;96761.66;6338135;22;20022;-48
2021/11/01 03:20:24;;;;;;;0.10;0.10;;;;;;;9.17;100.00;96764.81;6337743;22;20030;-49
2021/11/01 03:23:31;;;;;;;0.20;0.20;;;;;;;9.18;100.00;96775.38;6339033;22;20022;-48
2021/11/01 03:26:36;;;;;;;0.10;0.10;;;;;;;9.20;100.00;96777.63;6340354;22;20026;-49
2021/11/01 03:29:40;;;;;;;0.10;0.10;;;;;;;9.21;100.00;96778.38;6339538;22;20090;-49
2021/11/01 03:32:45;;;;;;;0.10;0.10;;;;;;;9.23;100.00;96793.19;6339841;22;20025;-49
2021/11/01 03:35:49;;;;;;;0.10;0.10;;;;;;;9.22;100.00;96785.41;6339503;22;20384;-49
2021/11/01 03:38:54;;;;;;;10.52;0.40;;;;;;;9.29;100.00;96785.47;6339870;22;20025;-49
2021/11/01 03:41:58;;;;;;;0.93;0.15;;;;;;;9.35;100.00;96788.13;6339654;22;20049;-49
2021/11/01 03:45:07;;;;;;;0.90;0.47;;;;;;;9.29;100.00;96793.81;6339993;22;20098;-49
2021/11/01 03:48:12;;;;;;;0.10;0.10;;;;;;;9.23;100.00;96798.00;6339929;22;20364;-49
2021/11/01 03:54:39;;;;;;;2.40;0.55;;;;;;;9.20;100.00;96807.44;6339486;22;20026;-49
2021/11/01 03:57:43;;;;;;;0.10;0.10;;;;;;;9.14;100.00;96802.75;6339595;22;20580;-48
2021/11/01 04:00:46;;;;;;;1.27;0.38;;;;;;;9.14;100.00;96813.09;6320284;22;20022;-49
2021/11/01 04:03:50;;;;;;;0.10;0.10;;;;;;;9.18;100.00;96814.25;6338919;22;20021;-49
2021/11/01 04:06:52;;;;;;;0.10;0.10;;;;;;;9.16;100.00;96816.81;6339633;22;20459;-49
2021/11/01 04:09:55;;;;;;;0.20;0.20;;;;;;;9.20;100.00;96804.66;6339100;22;20401;-49
2021/11/01 04:12:58;;;;;;;0.10;0.10;;;;;;;9.25;100.00;96817.66;6339893;22;20101;-48
2021/11/01 04:16:10;;;;;;;0.15;0.13;;;;;;;9.31;100.00;96816.25;6338767;22;20120;-48
2021/11/01 04:22:18;;;;;;;0.40;0.30;;;;;;;9.31;100.00;96819.03;6339605;22;20068;-49
2021/11/01 04:25:22;;;;;;;0.45;0.45;;;;;;;9.32;100.00;96833.63;6339283;22;20113;-49
2021/11/01 04:28:26;;;;;;;6.13;0.55;;;;;;;9.35;100.00;96843.69;6339179;22;20057;-49
2021/11/01 04:31:32;;;;;;;0.73;0.57;;;;;;;9.33;100.00;96846.25;6339463;22;20018;-49
2021/11/01 04:34:39;;;;;;;0.10;0.10;;;;;;;9.28;100.00;96849.88;6339070;22;20025;-49
2021/11/01 04:37:44;;;;;;;0.20;0.20;;;;;;;9.29;100.00;96845.84;6339605;22;20102;-48
2021/11/01 04:40:59;;;;;;;2.63;0.32;;;;;;;9.27;100.00;96851.19;6339123;22;20025;-49
2021/11/01 04:54:02;;;;;;;0.40;0.40;;;;;;;9.13;100.00;96862.34;6338916;22;20057;-49
2021/11/01 04:57:06;;;;;;;3.30;0.45;;;;;;;9.20;100.00;96876.84;6339106;22;20029;-49
2021/11/01 05:00:10;;;;;;;1.58;0.55;;;;;;;9.26;100.00;96869.13;6338755;22;20038;-49
2021/11/01 05:03:31;;;;;;;0.77;0.32;;;;;;;9.20;100.00;96871.28;6339408;22;20462;-49
2021/11/01 05:06:41;;;;;;;0.10;0.10;;;;;;;9.14;100.00;96872.16;6339067;22;20098;-49
2021/11/01 05:13:16;;;;;;;1.50;1.02;;;;;;;9.10;100.00;96874.50;6339376;22;20465;-49
2021/11/01 05:16:48;;;;;;;1.05;0.88;;;;;;;9.08;100.00;96879.84;6338827;22;20057;-49
2021/11/01 05:19:54;;;;;;;0.10;0.10;;;;;;;9.08;100.00;96882.63;6339096;22;20399;-49
2021/11/01 05:26:11;;;;;;;0.65;0.63;;;;;;;9.07;100.00;96886.69;6339157;22;20033;-49
2021/11/01 05:29:15;;;;;;;6.00;0.30;;;;;;;9.09;100.00;96886.91;6338448;22;20101;-49
2021/11/01 05:32:23;;;;;;;0.17;0.17;;;;;;;9.16;100.00;96880.69;6338984;22;20374;-49
2021/11/01 05:35:26;;;;;;;0.10;0.10;;;;;;;9.18;100.00;96885.72;6338704;22;20477;-49
2021/11/01 05:38:29;;;;;;;0.50;0.50;;;;;;;9.15;100.00;96893.09;6338963;22;20022;-49
2021/11/01 05:41:32;;;;;;;0.25;0.20;;;;;;;9.22;100.00;96885.38;6338594;22;20026;-48
2021/11/01 05:44:36;;;;;;;0.20;0.20;;;;;;;9.23;100.00;96901.47;6338682;22;20030;-49
2021/11/01 05:47:41;;;;;;;0.68;0.45;;;;;;;9.23;100.00;96893.16;6338361;22;20247;-49
2021/11/01 05:50:45;;;;;;;0.95;0.47;;;;;;;9.22;100.00;96888.91;6338734;22;20052;-49
2021/11/01 05:53:54;;;;;;;1.30;0.95;;;;;;;9.24;100.00;96893.91;6338563;22;20025;-49
2021/11/01 05:57:11;;;;;;;0.10;0.10;;;;;;;9.23;100.00;96903.50;6338697;22;20026;-49
2021/11/01 06:07:18;;;;;;;2.17;0.63;;;;;;;9.12;100.00;96902.47;6324721;22;20464;-49
2021/11/01 06:13:47;;;;;;;3.88;0.85;;;;;;;9.13;100.00;96903.22;6311815;22;20045;-49
2021/11/01 06:16:50;;;;;;;5.07;0.57;;;;;;;9.16;100.00;96911.22;6338225;22;20021;-49
2021/11/01 06:19:53;;;;;;;0.95;0.20;;;;;;;9.14;100.00;96902.69;6337934;22;20049;-49
2021/11/01 06:22:56;;;;;;;3.33;0.98;;;;;;;9.17;100.00;96920.31;6338791;22;20355;-49
2021/11/01 06:26:00;;;;;;;27.48;2.67;;;;;;;9.13;100.00;96906.75;6338195;22;20370;-49
2021/11/01 06:29:07;;;;;;;4.75;0.75;;;;;;;9.15;100.00;96917.31;6338314;22;20053;-49
2021/11/01 06:32:16;;;;;;;1.17;0.77;;;;;;;9.22;100.00;96913.13;6338960;22;20022;-49
2021/11/01 06:55:27;;;;;;;0.20;0.20;;;;;;;9.16;100.00;96947.31;6338430;22;20026;-48
2021/11/01 07:15:09;;;;;;;0.10;0.10;;;;;;;9.23;100.00;96965.34;6340103;22;20347;-49
2021/11/01 07:18:20;;;;;;;1.00;0.50;;;;;;;9.16;100.00;96966.00;6340235;22;20071;-49
2021/11/01 07:21:56;;;;;;;0.68;0.40;;;;;;;9.20;100.00;96977.53;6339830;22;20023;-48
2021/11/01 08:22:41;;;;;;;1.05;0.63;;;;;;;9.97;100.00;97005.66;6339107;22;20422;-49
2021/11/01 08:52:08;;;;;;;2.22;0.63;;;;;;;10.17;100.00;97026.44;6338898;22;20076;-48
2021/11/01 09:25:17;;;;;;;0.10;0.10;;;;;;;9.52;100.00;97102.38;6339107;22;20423;-49
2021/11/01 09:28:34;;;;;;;0.70;0.70;;;;;;;9.46;100.00;97116.38;6338526;22;20044;-50
2021/11/01 09:41:26;;;;;;;0.20;0.20;;;;;;;9.43;100.00;97144.47;6337980;22;20355;-50
2021/11/01 09:44:31;;;;;;;0.20;0.20;;;;;;;9.41;100.00;97133.13;6338678;22;20346;-49
2021/11/01 09:47:37;;;;;;;0.10;0.10;;;;;;;9.41;100.00;97144.25;6338123;22;20026;-50
2021/11/01 09:50:41;;;;;;;1.30;0.70;;;;;;;9.48;100.00;97151.94;6338484;22;20061;-49
2021/11/01 09:53:46;;;;;;;0.38;0.38;;;;;;;9.54;100.00;97161.69;6338291;22;20083;-49
2021/11/01 09:57:01;;;;;;;0.10;0.10;;;;;;;9.55;100.00;97162.44;6338483;22;20032;-50
2021/11/01 10:00:05;;;;;;;8.35;1.48;;;;;;;9.50;100.00;97182.72;6337748;22;20397;-51
2021/11/01 10:03:08;;;;;;;0.55;0.40;;;;;;;9.41;100.00;97203.34;6319981;22;20072;-50
2021/11/01 10:06:17;;;;;;;1.75;0.68;;;;;;;9.41;100.00;97224.78;6338788;22;20433;-50
2021/11/01 10:09:28;;;;;;;1.85;0.50;;;;;;;9.37;100.00;97235.47;6338675;22;20438;-50
2021/11/01 10:12:35;;;;;;;0.65;0.55;;;;;;;9.28;100.00;97238.66;6338824;22;20018;-50
2021/11/01 10:19:00;;;;;;;;;;;;;;;9.14;100.00;97263.59;6339041;22;20025;-50
2021/11/01 10:22:06;;;;;;;0.10;0.10;;;;;;;9.09;100.00;97256.13;6338582;22;20381;-50
2021/11/01 10:25:15;;;;;;;0.10;0.10;;;;;;;9.06;100.00;97256.41;6338059;22;20022;-50
2021/11/01 10:28:28;;;;;;;0.55;0.10;;;;;;;8.99;100.00;97279.97;6338139;22;20512;-50
2021/11/01 10:31:43;;;;;;;0.28;0.28;;;;;;;8.90;100.00;97274.09;6337804;22;20025;-50
2021/11/01 10:34:46;;;;;;;0.10;0.10;;;;;;;8.84;100.00;97285.25;6338146;22;20030;-50
2021/11/01 10:42:30;;;;;;;0.20;0.20;;;;;;;8.83;100.00;97283.00;6336855;22;20545;-49
2021/11/01 10:45:13;;;;;;;0.17;0.17;;;;;;;8.88;100.00;97285.69;6337835;22;20043;-49
2021/11/01 10:56:38;;;;;;;0.20;0.20;;;;;;;9.01;100.00;97282.97;6318670;22;20025;-50
2021/11/01 11:15:13;;;;;;;0.60;0.43;;;;;;;8.84;100.00;97351.09;6338231;22;20025;-51
2021/11/01 11:25:46;;;;;;;0.55;0.30;;;;;;;8.69;100.00;97362.66;6337913;22;20392;-48
2021/11/01 11:28:41;;;;;;;0.20;0.20;;;;;;;8.65;100.00;97356.66;6337751;22;20022;-48
2021/11/01 11:49:25;;;;;;;0.10;0.10;;;;;;;8.50;100.00;97384.06;6339671;22;20046;-50
2021/11/01 11:52:35;;;;;;;1.63;0.47;;;;;;;8.54;100.00;97394.84;6339713;22;20025;-49
2021/11/01 11:55:39;;;;;;;0.30;0.30;;;;;;;8.55;100.00;97397.13;6339563;22;20026;-49
2021/11/01 11:58:48;;;;;;;1.05;0.95;;;;;;;8.57;100.00;97402.91;6339518;22;20036;-50
2021/11/01 12:01:52;;;;;;;0.20;0.20;;;;;;;8.65;100.00;97406.56;6339706;22;20022;-49
2021/11/01 12:05:05;;;;;;;0.30;0.30;;;;;;;8.67;100.00;97409.59;6339262;22;20041;-49
2021/11/01 12:08:39;;;;;;;0.85;0.25;;;;;;;8.74;100.00;97413.78;6339903;22;20022;-49
2021/11/01 12:18:36;;;;;;;0.20;0.20;;;;;;;8.75;100.00;97416.03;6339221;22;20081;-49
2021/11/01 12:21:41;;;;;;;0.35;0.35;;;;;;;8.80;100.00;97423.56;6339201;22;20036;-49
2021/11/01 12:24:49;;;;;;;2.83;0.65;;;;;;;8.86;100.00;97427.00;6339048;22;20022;-49
2021/11/01 12:28:00;;;;;;;0.20;0.20;;;;;;;8.89;100.00;97428.75;6338976;22;20021;-49
2021/11/01 12:31:04;;;;;;;0.20;0.20;;;;;;;8.94;100.00;97429.97;6339064;22;20017;-49
2021/11/01 12:34:16;;;;;;;0.20;0.20;;;;;;;8.95;100.00;97426.66;6339285;22;20057;-49
2021/11/01 12:37:25;;;;;;;0.20;0.20;;;;;;;9.01;100.00;97426.56;6339046;22;20043;-48
2021/11/01 12:40:54;;;;;;;2.20;0.40;;;;;;;9.02;100.00;97423.28;6339074;22;20026;-48
2021/11/01 12:45:06;;;;;;;0.20;0.20;;;;;;;9.09;100.00;97433.06;6339404;22;20068;-49
2021/11/01 12:57:30;;;;;;;0.20;0.20;;;;;;;9.18;100.00;97443.03;6339283;22;20061;-49
2021/11/01 13:00:40;;;;;;;0.17;0.17;;;;;;;9.13;100.00;97439.81;6338283;22;20033;-48
2021/11/01 13:03:57;;;;;;;0.30;0.30;;;;;;;9.15;100.00;97445.59;6338711;22;20042;-49
2021/11/01 13:07:17;;;;;;;0.35;0.35;;;;;;;9.15;100.00;97442.81;6339312;22;20504;-49
2021/11/01 13:10:33;;;;;;;0.10;0.10;;;;;;;9.15;100.00;97442.06;6338901;22;20473;-48
2021/11/01 13:37:37;;;;;;;0.80;0.43;;;;;;;9.59;100.00;97462.94;5151606;27;20377;-51
2021/11/01 13:40:45;;;;;;;4.75;1.23;;;;;;;9.75;100.00;97470.25;5151302;27;20538;-50
2021/11/01 13:43:50;;;;;;;0.95;0.63;;;;;;;9.96;100.00;97470.47;5151501;27;20041;-50
2021/11/01 13:47:00;;;;;;;0.73;0.47;;;;;;;10.17;100.00;97468.63;5150987;27;20130;-50
2021/11/01 13:50:06;;;;;;;1.65;0.45;;;;;;;10.37;100.00;97457.66;5151595;27;20054;-50
2021/11/01 13:53:19;;;;;;;2.60;0.63;;;;;;;10.53;100.00;97459.41;5151321;27;20076;-48
2021/11/01 13:56:29;;;;;;;0.25;0.25;;;;;;;10.62;100.00;97464.56;5151362;27;20038;-47
2021/11/01 13:59:47;;;;;;;1.05;0.93;;;;;;;10.77;100.00;97464.03;5150691;27;20079;-48
2021/11/01 14:13:33;;;;;;;;;;;;;;;10.97;100.00;97468.19;5151829;27;20046;-47
2021/11/01 14:16:26;;;;;;;0.20;0.13;;;;;;;10.87;100.00;97456.72;5151229;27;19919;-48
2021/11/01 14:59:45;;;;;;;0.40;0.40;;;;;;;9.29;100.00;97507.50;5136401;27;20100;-47
2021/11/01 15:09:26;;;;;;;0.20;0.20;;;;;;;9.05;100.00;97518.66;5134831;27;20107;-48
2021/11/01 15:16:07;;;;;;;4.57;1.40;;;;;;;9.05;100.00;97527.72;5136037;27;20084;-48
2021/11/01 15:19:26;;;;;;;0.40;0.40;;;;;;;9.05;100.00;97527.00;5136299;27;20058;-48
2021/11/01 15:22:51;;;;;;;1.27;0.68;;;;;;;8.96;100.00;97530.88;5136215;27;20505;-47
2021/11/01 16:18:35;;;;;;;0.73;0.43;;;;;;;7.45;100.00;97576.81;5135331;27;20057;-47
2021/11/01 16:21:38;;;;;;;1.85;0.70;;;;;;;7.40;100.00;97580.38;5122208;27;20043;-47
2021/11/01 16:24:41;;;;;;;0.52;0.52;;;;;;;7.32;100.00;97589.72;5114433;28;20046;-47
2021/11/01 16:27:48;;;;;;;2.25;0.68;;;;;;;7.27;100.00;97585.69;5114668;28;20123;-48
2021/11/01 16:34:25;;;;;;;1.95;1.23;;;;;;;7.28;100.00;97612.09;5114771;28;20050;-48
2021/11/01 16:37:41;;;;;;;1.15;0.57;;;;;;;7.16;100.00;97616.16;5114098;28;20482;-47
2021/11/01 16:40:45;;;;;;;0.50;0.50;;;;;;;7.02;100.00;97617.19;5114151;28;20179;-47
2021/11/01 16:43:49;;;;;;;0.30;0.30;;;;;;;6.95;100.00;97622.50;5119011;27;20083;-47
2021/11/01 16:46:53;;;;;;;0.50;0.40;;;;;;;7.01;100.00;97623.22;5133751;27;20421;-50
2021/11/01 16:49:56;;;;;;;0.20;0.20;;;;;;;6.97;100.00;97631.81;5134182;27;20050;-50
2021/11/01 16:52:59;;;;;;;0.28;0.28;;;;;;;6.91;100.00;97628.25;5134601;27;20114;-50
2021/11/01 16:56:24;;;;;;;0.73;0.30;;;;;;;6.83;100.00;97627.28;5134781;27;20046;-50
2021/11/01 17:26:01;;;;;;;4.80;1.23;;;;;;;6.91;100.00;97653.16;5134350;28;20037;-50
2021/11/01 18:40:25;;;;;;;3.53;0.80;;;;;;;6.25;100.00;97725.00;5136751;27;20398;-50
2021/11/01 18:50:49;;;;;;;0.63;0.47;;;;;;;6.13;100.00;97736.00;5136409;27;20065;-51
2021/11/01 18:53:52;;;;;;;1.30;0.68;;;;;;;6.02;100.00;97744.25;5136658;27;20065;-51
2021/11/01 18:56:58;;;;;;;3.80;1.20;;;;;;;5.99;100.00;97748.03;5136467;27;20080;-51
2021/11/01 19:00:05;;;;;;;1.27;0.80;;;;;;;5.97;100.00;97750.53;5136334;27;20076;-50
2021/11/01 19:03:13;;;;;;;1.95;1.52;;;;;;;5.91;100.00;97749.72;5136231;27;20057;-50
2021/11/01 19:10:33;;;;;;;0.73;0.73;;;;;;;5.73;100.00;97755.63;5136440;27;20050;-51
2021/11/01 20:13:21;;;;;;;0.80;0.70;;;;;;;4.91;100.00;97808.97;5114648;28;20588;-51
2021/11/01 21:27:40;;;;;;;7.60;1.88;;;;;;;4.95;100.00;97848.09;5134007;28;20042;-52
2021/11/01 21:30:44;;;;;;;5.72;1.80;;;;;;;5.00;100.00;97852.16;5133979;28;20058;-51
2021/11/01 21:33:54;;;;;;;1.40;1.40;;;;;;;4.99;100.00;97853.41;5133684;28;20062;-51
2021/11/01 21:36:59;;;;;;;11.90;1.52;;;;;;;5.04;100.00;97860.97;5120869;28;20046;-51
2021/11/01 21:40:09;;;;;;;0.98;0.73;;;;;;;5.16;100.00;97857.06;5133928;28;20095;-51
2021/11/01 21:43:13;;;;;;;1.15;1.15;;;;;;;5.27;100.00;97857.19;5133766;28;20123;-51
2021/11/01 21:46:16;;;;;;;1.95;0.95;;;;;;;5.37;100.00;97861.31;5133700;27;20540;-51
2021/11/01 21:49:19;;;;;;;1.38;1.00;;;;;;;5.44;100.00;97852.56;5137988;27;20448;-51
2021/11/01 21:52:25;;;;;;;2.03;1.17;;;;;;;5.44;100.00;97855.31;5137933;27;20046;-52
2021/11/01 21:55:29;;;;;;;1.35;1.33;;;;;;;5.50;100.00;97861.63;5137953;27;20493;-52
2021/11/01 22:22:25;;;;;;;8.38;1.50;;;;;;;5.36;100.00;97860.53;5137336;27;20165;-52
2021/11/01 22:39:00;;;;;;;1.45;1.20;;;;;;;5.61;100.00;97867.25;5136946;27;20176;-51
2021/11/01 22:42:15;;;;;;;4.15;1.30;;;;;;;5.64;100.00;97868.28;5136536;27;20088;-51
2021/11/01 22:45:31;;;;;;;0.60;0.45;;;;;;;5.71;100.00;97865.06;5136703;27;20039;-52
2021/11/01 22:48:52;;;;;;;1.75;0.80;;;;;;;5.80;100.00;97865.66;5137109;27;20385;-51
2021/11/01 22:58:40;;;;;;;0.43;0.43;;;;;;;5.99;100.00;97872.34;5136531;27;20053;-52
2021/11/01 23:01:48;;;;;;;1.98;1.13;;;;;;;5.98;100.00;97870.03;5136273;27;20045;-51
2021/11/01 23:31:38;;;;;;;2.03;0.88;;;;;;;6.11;100.00;97868.38;5115492;28;20125;-51
2021/11/01 23:34:41;;;;;;;2.17;1.50;;;;;;;6.14;100.00;97872.16;5115165;28;20092;-51
2021/11/01 23:37:44;;;;;;;2.35;0.63;;;;;;;6.13;100.00;97871.41;5115170;28;20446;-51
2021/11/01 23:40:47;;;;;;;1.33;1.23;;;;;;;6.13;100.00;97867.16;5114847;28;20462;-52
2021/11/01 23:43:51;;;;;;;1.08;0.82;;;;;;;6.13;100.00;97876.94;5102544;28;20061;-51
2021/11/01 23:46:54;;;;;;;1.75;1.33;;;;;;;6.16;100.00;97875.19;5114220;28;20088;-52
2021/11/01 23:49:58;;;;;;;2.58;1.45;;;;;;;6.07;100.00;97867.84;5114670;28;20065;-52
2021/11/01 23:53:14;;;;;;;0.95;0.90;;;;;;;6.07;100.00;97878.91;5114786;28;20065;-51
2021/11/01 23:56:18;;;;;;;1.48;1.02;;;;;;;6.16;100.00;97879.97;5091084;28;20061;-52
2021/11/01 23:59:21;;;;;;;0.77;0.60;;;;;;;6.23;100.00;97879.50;5062759;28;20042;-51
